Bospor — UBQP4 — position and weather

sailwx.info

Track history (hours):
 
Tides and Currents Weather Stations Pressure Air Temp Water Temp Dewpoint Dewpoint Depression Visibility Wind Speed Wind Dir Waves Ship Positions

Bospor

Last reported at 2017-Dec-15 06:30 UTC. Time now 2017-Dec-15 06:38 UTC.
Position N 44°43' E 037°47'.

Length 26 m; draft 1.8 m.

Type: Pilot. MMSI: 273394060.

Date/timePositionNaut miles runAvg speedWind from/ knotsBaromVisibWave heightAir tempDewpointWater temp
2017-Dec-15 06:30N 44°43' E 037°47'0 0.0
2017-Dec-15 06:00N 44°43' E 037°47'0 0.0
2017-Dec-15 05:30N 44°43' E 037°47'0 0.0
2017-Dec-15 05:00N 44°43' E 037°47'1 2.9
2017-Dec-15 04:30N 44°43' E 037°49'6 9.8
2017-Dec-15 03:54N 44°37' E 037°51'6 4.4
2017-Dec-15 02:29N 44°43' E 037°47'0 0.0
2017-Dec-15 00:59N 44°43' E 037°47'0 0.0
2017-Dec-15 00:29N 44°43' E 037°47'0 0.0
2017-Dec-14 18:29N 44°43' E 037°47'0 0.0
2017-Dec-14 17:59N 44°43' E 037°47'0 0.0
2017-Dec-14 17:29N 44°43' E 037°47'0 0.0
2017-Dec-14 16:59N 44°43' E 037°47'0 0.0
2017-Dec-14 16:29N 44°43' E 037°47'0 0.0
2017-Dec-14 15:59N 44°43' E 037°47'0 0.0
2017-Dec-14 14:59N 44°43' E 037°47'0 0.0
2017-Dec-14 14:29N 44°43' E 037°47'0 0.0
2017-Dec-14 13:59N 44°43' E 037°47'0 0.0
2017-Dec-14 13:29N 44°43' E 037°47'1 3.1
2017-Dec-14 13:00N 44°42' E 037°49'2 4.1
2017-Dec-14 12:30N 44°40' E 037°50'3 6.5
2017-Dec-14 11:59N 44°43' E 037°47'0 0.0
2017-Dec-14 11:29N 44°43' E 037°47'0 0.0
2017-Dec-14 11:00N 44°43' E 037°47'5 9.6
2017-Dec-14 10:30N 44°39' E 037°51'0 0.8
2017-Dec-14 10:00N 44°39' E 037°51'0 0.5
2017-Dec-14 09:30N 44°40' E 037°50'0 0.2
2017-Dec-14 09:00N 44°40' E 037°51'2 3.5
2017-Dec-14 08:28N 44°40' E 037°48'0 0.0
2017-Dec-14 07:55N 44°40' E 037°48'0 0.0
2017-Dec-14 07:28N 44°40' E 037°48'0 0.0
2017-Dec-14 06:58N 44°40' E 037°48'0 0.0
2017-Dec-14 06:28N 44°40' E 037°48'1 1.8
2017-Dec-14 06:00N 44°41' E 037°49'3 5.3
2017-Dec-14 05:28N 44°43' E 037°47'0 0.0
2017-Dec-14 04:58N 44°43' E 037°47'0 0.0
2017-Dec-14 04:29N 44°43' E 037°47'2 5.1
2017-Dec-14 04:01N 44°41' E 037°49'0 0.4
2017-Dec-14 03:30N 44°41' E 037°50'1 2.7
2017-Dec-14 03:00N 44°40' E 037°51'0 0.2
2017-Dec-14 02:26N 44°40' E 037°51'1 1.7
2017-Dec-14 02:00N 44°39' E 037°51'1 1.3
2017-Dec-14 01:29N 44°40' E 037°51'0 0.3
2017-Dec-14 01:00N 44°40' E 037°51'1 1.1
2017-Dec-14 00:30N 44°40' E 037°50'4 7.3
2017-Dec-13 23:58N 44°43' E 037°47'0 0.3
2017-Dec-13 23:29N 44°43' E 037°47'0 0.0
2017-Dec-13 22:59N 44°43' E 037°47'0 0.0
2017-Dec-13 22:29N 44°43' E 037°47'0 0.0
2017-Dec-13 21:59N 44°43' E 037°47'0 0.0
2017-Dec-13 21:29N 44°43' E 037°47'0 0.0
2017-Dec-13 20:59N 44°43' E 037°47'0 0.0
2017-Dec-13 20:29N 44°43' E 037°47'0 0.0
2017-Dec-13 19:59N 44°43' E 037°47'0 0.0
2017-Dec-13 19:29N 44°43' E 037°47'0 0.0
2017-Dec-13 18:56N 44°43' E 037°47'0 0.0
2017-Dec-13 18:29N 44°43' E 037°47'0 0.0
2017-Dec-13 17:59N 44°43' E 037°47'0 0.4
2017-Dec-13 17:30N 44°43' E 037°47'0 0.3
2017-Dec-13 16:59N 44°43' E 037°47'0 0.0
2017-Dec-13 16:29N 44°43' E 037°47'0 0.0
2017-Dec-13 15:59N 44°43' E 037°47'0 0.0
2017-Dec-13 15:29N 44°43' E 037°47'0 0.0
2017-Dec-13 14:59N 44°43' E 037°47'2 5.0
2017-Dec-13 14:30N 44°41' E 037°50'2 4.6
2017-Dec-13 14:00N 44°39' E 037°50'1 1.1
2017-Dec-13 13:30N 44°39' E 037°51'0 0.3
2017-Dec-13 13:00N 44°39' E 037°51'0 0.3
2017-Dec-13 12:29N 44°39' E 037°51'0 0.4
2017-Dec-13 12:00N 44°39' E 037°51'5 8.4
2017-Dec-13 11:27N 44°43' E 037°47'0 0.3
2017-Dec-13 10:58N 44°43' E 037°47'0 0.0
2017-Dec-13 10:28N 44°43' E 037°47'1 2.6
2017-Dec-13 10:00N 44°42' E 037°48'1 2.4
2017-Dec-13 09:29N 44°43' E 037°47'0 0.0
2017-Dec-13 09:00N 44°43' E 037°47'4 8.4
2017-Dec-13 08:30N 44°40' E 037°51'2 3.9
2017-Dec-13 08:00N 44°38' E 037°52'510.2
2017-Dec-13 07:30N 44°42' E 037°49'1 2.1
2017-Dec-13 06:59N 44°43' E 037°47'2 4.1
2017-Dec-13 06:30N 44°42' E 037°49'3 6.3
2017-Dec-13 06:00N 44°39' E 037°51'1 2.8
2017-Dec-13 05:30N 44°40' E 037°50'4 7.0
2017-Dec-13 04:59N 44°43' E 037°47'0 0.0
2017-Dec-13 04:29N 44°43' E 037°47'0 0.0
2017-Dec-13 03:56N 44°43' E 037°47'0 0.0
2017-Dec-13 03:29N 44°43' E 037°47'0 0.0
2017-Dec-13 02:59N 44°43' E 037°47'0 0.0
2017-Dec-13 02:29N 44°43' E 037°47'0 0.2
2017-Dec-13 02:00N 44°43' E 037°47'4 7.2
2017-Dec-13 01:30N 44°40' E 037°50'2 3.8
2017-Dec-13 01:00N 44°42' E 037°49'2 3.4
2017-Dec-13 00:30N 44°43' E 037°48'1 1.0
2017-Dec-13 00:00N 44°43' E 037°47'0 0.0
2017-Dec-12 23:30N 44°43' E 037°47'0 0.0
2017-Dec-12 23:00N 44°43' E 037°47'0 0.0
2017-Dec-12 22:30N 44°43' E 037°47'0 0.0
2017-Dec-12 22:00N 44°43' E 037°47'0 0.0
2017-Dec-12 21:30N 44°43' E 037°47'0 0.0
2017-Dec-12 21:00N 44°43' E 037°47'0 0.0
2017-Dec-12 20:30N 44°43' E 037°47'0 0.0
2017-Dec-12 20:00N 44°43' E 037°47'0 0.0
2017-Dec-12 19:30N 44°43' E 037°47'0 0.0
2017-Dec-12 18:57N 44°43' E 037°47'0 0.0
2017-Dec-12 18:30N 44°43' E 037°47'0 0.0
2017-Dec-12 18:00N 44°43' E 037°47'0 0.0
2017-Dec-12 17:30N 44°43' E 037°47'0 0.0
2017-Dec-12 17:00N 44°43' E 037°47'0 0.0
2017-Dec-12 16:30N 44°43' E 037°47'0 0.0
2017-Dec-12 15:54N 44°43' E 037°47'0 0.0
2017-Dec-12 15:30N 44°43' E 037°47'0 0.0
2017-Dec-12 15:00N 44°43' E 037°47'0 0.0
2017-Dec-12 14:30N 44°43' E 037°47'0 0.0
2017-Dec-12 14:00N 44°43' E 037°47'0 0.0
2017-Dec-12 13:30N 44°43' E 037°47'0 0.0
2017-Dec-12 12:57N 44°43' E 037°47'0 0.0
2017-Dec-12 12:30N 44°43' E 037°47'0 0.0
2017-Dec-12 12:00N 44°43' E 037°47'0 0.0
2017-Dec-12 11:27N 44°43' E 037°47'0 0.0
2017-Dec-12 11:00N 44°43' E 037°47'0 0.0
2017-Dec-12 10:30N 44°43' E 037°47'0 0.0
2017-Dec-12 10:00N 44°43' E 037°47'0 0.0
2017-Dec-12 09:30N 44°43' E 037°47'0 0.0
2017-Dec-12 09:00N 44°43' E 037°47'0 0.0
2017-Dec-12 08:30N 44°43' E 037°47'0 0.0
2017-Dec-12 07:57N 44°43' E 037°47'0 0.0
2017-Dec-12 07:30N 44°43' E 037°47'0 0.0
2017-Dec-12 07:00N 44°43' E 037°47'0 0.0
2017-Dec-12 06:30N 44°43' E 037°47'0 0.0
2017-Dec-12 06:00N 44°43' E 037°47'0 0.0
2017-Dec-12 05:30N 44°43' E 037°47'0 0.0
2017-Dec-12 05:00N 44°43' E 037°47'0 0.0
2017-Dec-12 04:30N 44°43' E 037°47'0 0.0
2017-Dec-12 04:00N 44°43' E 037°47'0 0.0
2017-Dec-12 03:30N 44°43' E 037°47'0 0.0
2017-Dec-12 03:00N 44°43' E 037°47'0 0.0
2017-Dec-12 02:30N 44°43' E 037°47'0 0.0
2017-Dec-12 02:00N 44°43' E 037°47'0 0.0
2017-Dec-12 01:30N 44°43' E 037°47'0 0.0
2017-Dec-12 01:00N 44°43' E 037°47'0 0.0
2017-Dec-12 00:30N 44°43' E 037°47'0 0.0
2017-Dec-11 23:57N 44°43' E 037°47'0 0.0
2017-Dec-11 23:30N 44°43' E 037°47'0 0.0
2017-Dec-11 23:00N 44°43' E 037°47'0 0.0
2017-Dec-11 22:30N 44°43' E 037°47'0 0.0
2017-Dec-11 22:00N 44°43' E 037°47'0 0.0
2017-Dec-11 21:30N 44°43' E 037°47'0 0.0
2017-Dec-11 21:00N 44°43' E 037°47'0 0.0
2017-Dec-11 20:30N 44°43' E 037°47'0 0.0
2017-Dec-11 20:00N 44°43' E 037°47'0 0.0
2017-Dec-11 19:30N 44°43' E 037°47'0 0.0
2017-Dec-11 19:00N 44°43' E 037°47'0 0.0
2017-Dec-11 18:30N 44°43' E 037°47'0 0.0
2017-Dec-11 18:00N 44°43' E 037°47'0 0.0
2017-Dec-11 17:30N 44°43' E 037°47'0 0.0
2017-Dec-11 17:00N 44°43' E 037°47'0 0.0
2017-Dec-11 16:30N 44°43' E 037°47'0 0.0
2017-Dec-11 15:55N 44°43' E 037°47'0 0.0
2017-Dec-11 15:28N 44°43' E 037°47'0 0.0
2017-Dec-11 14:58N 44°43' E 037°47'0 0.0
2017-Dec-11 14:28N 44°43' E 037°47'0 0.0
2017-Dec-11 13:58N 44°43' E 037°47'0 0.0
2017-Dec-11 13:28N 44°43' E 037°47'0 0.0
2017-Dec-11 12:58N 44°43' E 037°47'0 0.0
2017-Dec-11 12:25N 44°43' E 037°47'0 0.0
2017-Dec-11 11:58N 44°43' E 037°47'1 2.9
2017-Dec-11 11:30N 44°42' E 037°49'0 0.9
2017-Dec-11 10:59N 44°42' E 037°49'2 4.0
2017-Dec-11 10:30N 44°40' E 037°50'4 7.0
2017-Dec-11 09:59N 44°43' E 037°47'0 0.3
2017-Dec-11 09:29N 44°43' E 037°47'0 0.0
2017-Dec-11 08:59N 44°43' E 037°47'0 0.0
2017-Dec-11 08:29N 44°43' E 037°47'0 0.0
2017-Dec-11 07:59N 44°43' E 037°47'0 0.0
2017-Dec-11 07:29N 44°43' E 037°47'0 0.0
2017-Dec-11 06:59N 44°43' E 037°47'0 0.0
2017-Dec-11 06:29N 44°43' E 037°47'0 0.1
2017-Dec-11 06:00N 44°43' E 037°47'0 0.1
2017-Dec-11 05:30N 44°43' E 037°47'0 0.0
2017-Dec-11 05:00N 44°43' E 037°47'0 0.0
2017-Dec-11 04:30N 44°43' E 037°47'3 6.5
2017-Dec-11 04:00N 44°41' E 037°50'3 5.8
2017-Dec-11 03:30N 44°43' E 037°48'1 1.6
2017-Dec-11 03:00N 44°43' E 037°47'0 0.0
2017-Dec-11 02:30N 44°43' E 037°47'0 0.0
2017-Dec-11 02:00N 44°43' E 037°47'0 0.0
2017-Dec-11 01:30N 44°43' E 037°47'0 0.0
2017-Dec-11 01:00N 44°43' E 037°47'0 0.0
2017-Dec-11 00:30N 44°43' E 037°47'0 0.0
2017-Dec-11 00:00N 44°43' E 037°47'0 0.0
2017-Dec-10 23:30N 44°43' E 037°47'0 0.0
2017-Dec-10 23:00N 44°43' E 037°47'0 0.0
2017-Dec-10 22:30N 44°43' E 037°47'0 0.0
2017-Dec-10 22:00N 44°43' E 037°47'0 0.0
2017-Dec-10 21:31N 44°43' E 037°47'0 0.0
2017-Dec-10 20:59N 44°43' E 037°47'0 0.0
2017-Dec-10 20:10N 44°43' E 037°47'0 0.0
2017-Dec-10 19:58N 44°43' E 037°47'0 0.0
2017-Dec-10 19:25N 44°43' E 037°47'0 0.0
2017-Dec-10 18:58N 44°43' E 037°47'0 0.0
2017-Dec-10 18:28N 44°43' E 037°47'0 0.0
2017-Dec-10 17:58N 44°43' E 037°47'0 0.0
2017-Dec-10 17:28N 44°43' E 037°47'0 0.0
2017-Dec-10 16:58N 44°43' E 037°47'0 0.0
2017-Dec-10 16:28N 44°43' E 037°47'0 0.0
2017-Dec-10 15:58N 44°43' E 037°47'0 0.0
2017-Dec-10 15:25N 44°43' E 037°47'0 0.0
2017-Dec-10 14:58N 44°43' E 037°47'0 0.0
2017-Dec-10 14:25N 44°43' E 037°47'0 0.0
2017-Dec-10 13:58N 44°43' E 037°47'0 0.0
2017-Dec-10 13:28N 44°43' E 037°47'0 0.0
2017-Dec-10 12:58N 44°43' E 037°47'0 0.0
2017-Dec-10 12:28N 44°43' E 037°47'0 0.0
2017-Dec-10 11:58N 44°43' E 037°47'0 0.0
2017-Dec-10 11:28N 44°43' E 037°47'0 0.0
2017-Dec-10 10:55N 44°43' E 037°47'0 0.0
2017-Dec-10 10:28N 44°43' E 037°47'0 0.0
2017-Dec-10 09:58N 44°43' E 037°47'0 0.0
2017-Dec-10 09:28N 44°43' E 037°47'0 0.0
2017-Dec-10 08:58N 44°43' E 037°47'0 0.0
2017-Dec-10 08:28N 44°43' E 037°47'0 0.0
2017-Dec-10 07:52N 44°43' E 037°47'0 0.0
2017-Dec-10 07:28N 44°43' E 037°47'0 0.0
2017-Dec-10 06:58N 44°43' E 037°47'0 0.0
2017-Dec-10 06:28N 44°43' E 037°47'0 0.0
2017-Dec-10 05:58N 44°43' E 037°47'0 0.0
2017-Dec-10 05:28N 44°43' E 037°47'0 0.0
2017-Dec-10 04:58N 44°43' E 037°47'0 0.0
2017-Dec-10 04:28N 44°43' E 037°47'0 0.0
2017-Dec-10 03:52N 44°43' E 037°47'0 0.0
2017-Dec-10 03:28N 44°43' E 037°47'0 0.0
2017-Dec-10 02:55N 44°43' E 037°47'0 0.0
2017-Dec-10 02:28N 44°43' E 037°47'0 0.0
2017-Dec-10 01:58N 44°43' E 037°47'0 0.0
2017-Dec-10 01:28N 44°43' E 037°47'0 0.0
2017-Dec-10 00:58N 44°43' E 037°47'0 0.0
2017-Dec-10 00:28N 44°43' E 037°47'0 0.0
2017-Dec-09 23:58N 44°43' E 037°47'0 0.0
2017-Dec-09 23:28N 44°43' E 037°47'0 0.0
2017-Dec-09 22:58N 44°43' E 037°47'0 0.0
2017-Dec-09 22:28N 44°43' E 037°47'0 0.0
2017-Dec-09 21:22N 44°43' E 037°47'0 0.0
2017-Dec-09 20:58N 44°43' E 037°47'0 0.0
2017-Dec-09 20:28N 44°43' E 037°47'0 0.0
2017-Dec-09 19:58N 44°43' E 037°47'0 0.0
2017-Dec-09 19:28N 44°43' E 037°47'0 0.0
2017-Dec-09 18:58N 44°43' E 037°47'0 0.0
2017-Dec-09 18:28N 44°43' E 037°47'0 0.0
2017-Dec-09 17:58N 44°43' E 037°47'0 0.0
2017-Dec-09 17:28N 44°43' E 037°47'0 0.0
2017-Dec-09 16:58N 44°43' E 037°47'0 0.0
2017-Dec-09 16:28N 44°43' E 037°47'0 0.0
2017-Dec-09 15:58N 44°43' E 037°47'0 0.0
2017-Dec-09 15:28N 44°43' E 037°47'0 0.0
2017-Dec-09 14:58N 44°43' E 037°47'0 0.0
2017-Dec-09 14:28N 44°43' E 037°47'0 0.0
2017-Dec-09 13:58N 44°43' E 037°47'0 0.0
2017-Dec-09 13:28N 44°43' E 037°47'0 0.0
2017-Dec-09 12:58N 44°43' E 037°47'0 0.0
2017-Dec-09 12:28N 44°43' E 037°47'0 0.0
2017-Dec-09 11:58N 44°43' E 037°47'0 0.0
2017-Dec-09 11:28N 44°43' E 037°47'0 0.0
2017-Dec-09 10:58N 44°43' E 037°47'0 0.0
2017-Dec-09 10:28N 44°43' E 037°47'0 0.0
2017-Dec-09 09:58N 44°43' E 037°47'0 0.0
2017-Dec-09 09:28N 44°43' E 037°47'0 0.0
2017-Dec-09 08:58N 44°43' E 037°47'0 0.0
2017-Dec-09 08:28N 44°43' E 037°47'0 0.0
2017-Dec-09 07:58N 44°43' E 037°47'0 0.0
2017-Dec-09 07:28N 44°43' E 037°47'0 0.0
2017-Dec-09 06:58N 44°43' E 037°47'0 0.0
2017-Dec-09 06:28N 44°43' E 037°47'0 0.0
2017-Dec-09 05:58N 44°43' E 037°47'0 0.0
2017-Dec-09 05:28N 44°43' E 037°47'0 0.0
2017-Dec-09 04:58N 44°43' E 037°47'0 0.0
2017-Dec-09 04:28N 44°43' E 037°47'0 0.0
2017-Dec-09 03:58N 44°43' E 037°47'0 0.0
2017-Dec-09 03:28N 44°43' E 037°47'0 0.0
2017-Dec-09 02:58N 44°43' E 037°47'0 0.0
2017-Dec-09 02:28N 44°43' E 037°47'0 0.0
2017-Dec-09 01:58N 44°43' E 037°47'0 0.0
2017-Dec-09 01:28N 44°43' E 037°47'0 0.0
2017-Dec-09 00:58N 44°43' E 037°47'0 0.0
2017-Dec-09 00:28N 44°43' E 037°47'0 0.0
2017-Dec-08 23:58N 44°43' E 037°47'0 0.0
2017-Dec-08 23:28N 44°43' E 037°47'0 0.0
2017-Dec-08 22:58N 44°43' E 037°47'0 0.0
2017-Dec-08 22:28N 44°43' E 037°47'0 0.0
2017-Dec-08 21:58N 44°43' E 037°47'0 0.0
2017-Dec-08 21:28N 44°43' E 037°47'0 0.0
2017-Dec-08 20:55N 44°43' E 037°47'0 0.0
2017-Dec-08 20:28N 44°43' E 037°47'0 0.0
2017-Dec-08 19:58N 44°43' E 037°47'0 0.0
2017-Dec-08 19:28N 44°43' E 037°47'1 1.2
2017-Dec-08 19:00N 44°43' E 037°48'1 1.0
2017-Dec-08 18:28N 44°43' E 037°47'0 0.0
2017-Dec-08 18:00N 44°43' E 037°47'0 0.0
2017-Dec-08 17:30N 44°43' E 037°47'0 0.0
2017-Dec-08 16:54N 44°43' E 037°47'0 0.0
2017-Dec-08 16:30N 44°43' E 037°47'0 0.0
2017-Dec-08 16:00N 44°43' E 037°47'0 0.0
2017-Dec-08 15:30N 44°43' E 037°47'1 2.1
2017-Dec-08 15:00N 44°43' E 037°49'1 1.2
2017-Dec-08 14:30N 44°42' E 037°49'2 4.1
2017-Dec-08 14:00N 44°40' E 037°50'2 4.8
2017-Dec-08 13:30N 44°42' E 037°48'1 2.6
2017-Dec-08 13:01N 44°43' E 037°47'2 4.2
2017-Dec-08 12:30N 44°42' E 037°49'0 0.8
2017-Dec-08 11:58N 44°42' E 037°49'2 4.6
2017-Dec-08 11:30N 44°40' E 037°51'3 5.7
2017-Dec-08 11:00N 44°42' E 037°49'1 2.6
2017-Dec-08 10:28N 44°43' E 037°47'0 0.0
2017-Dec-08 09:55N 44°43' E 037°47'0 0.0
2017-Dec-08 09:28N 44°43' E 037°47'0 0.0
2017-Dec-08 08:58N 44°43' E 037°47'0 0.0
2017-Dec-08 08:28N 44°43' E 037°47'0 0.0
2017-Dec-08 07:58N 44°43' E 037°47'0 0.0
2017-Dec-08 07:28N 44°43' E 037°47'0 0.0
2017-Dec-08 06:58N 44°43' E 037°47'0 0.0
2017-Dec-08 06:28N 44°43' E 037°47'0 0.0
2017-Dec-08 05:58N 44°43' E 037°47'0 0.0
2017-Dec-08 05:25N 44°43' E 037°47'0 0.0
2017-Dec-08 04:58N 44°43' E 037°47'0 0.0
2017-Dec-08 04:28N 44°43' E 037°47'0 0.0
2017-Dec-08 03:58N 44°43' E 037°47'0 0.0
2017-Dec-08 03:25N 44°43' E 037°47'0 0.0
2017-Dec-08 02:58N 44°43' E 037°47'0 0.0
2017-Dec-08 02:28N 44°43' E 037°47'0 0.0
2017-Dec-08 01:55N 44°43' E 037°47'0 0.0
2017-Dec-08 01:28N 44°43' E 037°47'0 0.0
2017-Dec-08 00:58N 44°43' E 037°47'0 0.0
2017-Dec-08 00:28N 44°43' E 037°47'0 0.0
2017-Dec-07 23:58N 44°43' E 037°47'0 0.0
2017-Dec-07 23:28N 44°43' E 037°47'0 0.0
2017-Dec-07 22:58N 44°43' E 037°47'0 0.0
2017-Dec-07 22:28N 44°43' E 037°47'0 0.0
2017-Dec-07 21:58N 44°43' E 037°47'0 0.0
2017-Dec-07 21:28N 44°43' E 037°47'0 0.0
2017-Dec-07 20:58N 44°43' E 037°47'0 0.0
2017-Dec-07 20:25N 44°43' E 037°47'0 0.0
2017-Dec-07 19:58N 44°43' E 037°47'0 0.0
2017-Dec-07 19:28N 44°43' E 037°47'0 0.0
2017-Dec-07 18:58N 44°43' E 037°47'0 0.2
2017-Dec-07 18:30N 44°43' E 037°47'4 7.8
2017-Dec-07 18:01N 44°40' E 037°50'2 3.7
2017-Dec-07 17:30N 44°38' E 037°51'4 8.3
2017-Dec-07 17:00N 44°42' E 037°49'2 3.5
2017-Dec-07 16:30N 44°43' E 037°47'0 0.0
2017-Dec-07 16:00N 44°43' E 037°47'3 6.5
2017-Dec-07 15:30N 44°41' E 037°51'2 3.5
2017-Dec-07 15:00N 44°40' E 037°53'1 1.6
2017-Dec-07 14:29N 44°40' E 037°54'4 8.6
2017-Dec-07 14:00N 44°42' E 037°49'2 2.9
2017-Dec-07 13:24N 44°43' E 037°47'2 5.0
2017-Dec-07 13:01N 44°42' E 037°49'1 2.4
2017-Dec-07 12:30N 44°41' E 037°50'3 5.9
2017-Dec-07 11:59N 44°43' E 037°47'0 0.0
2017-Dec-07 11:29N 44°43' E 037°47'0 0.0
2017-Dec-07 10:59N 44°43' E 037°47'0 0.0
2017-Dec-07 10:29N 44°43' E 037°47'0 0.0
2017-Dec-07 09:59N 44°43' E 037°47'0 0.0
2017-Dec-07 09:30N 44°43' E 037°47'1 1.5
2017-Dec-07 09:00N 44°44' E 037°47'0 0.0
2017-Dec-07 08:30N 44°44' E 037°47'0 0.0
2017-Dec-07 08:00N 44°44' E 037°47'1 1.2
2017-Dec-07 07:30N 44°43' E 037°47'0 0.3
2017-Dec-07 06:59N 44°43' E 037°47'0 0.0
2017-Dec-07 06:26N 44°43' E 037°47'0 0.0
2017-Dec-07 05:59N 44°43' E 037°47'0 0.0
2017-Dec-07 05:23N 44°43' E 037°47'0 0.0
2017-Dec-07 04:59N 44°43' E 037°47'0 0.0
2017-Dec-07 04:26N 44°43' E 037°47'3 8.1
2017-Dec-07 04:00N 44°41' E 037°51'1 2.4
2017-Dec-07 03:30N 44°40' E 037°51'0 0.6
2017-Dec-07 03:00N 44°40' E 037°50'1 1.1
2017-Dec-07 02:30N 44°40' E 037°51'3 6.3
2017-Dec-07 02:00N 44°42' E 037°49'1 2.3
2017-Dec-07 01:30N 44°43' E 037°47'0 0.0
2017-Dec-07 01:00N 44°43' E 037°47'0 0.0
2017-Dec-07 00:27N 44°43' E 037°47'0 0.0
2017-Dec-07 00:00N 44°43' E 037°47'0 0.0
2017-Dec-06 23:30N 44°43' E 037°47'0 0.0
2017-Dec-06 23:00N 44°43' E 037°47'0 0.0
2017-Dec-06 22:30N 44°43' E 037°47'0 0.0
2017-Dec-06 22:00N 44°43' E 037°47'1 2.4
2017-Dec-06 21:30N 44°43' E 037°49'3 6.9
2017-Dec-06 21:00N 44°40' E 037°51'  
Track history (hours):
 
Tides and Currents Weather Stations Pressure Air Temp Water Temp Dewpoint Dewpoint Depression Visibility Wind Speed Wind Dir Waves Ship Positions

Bospor

Last reported at 2017-Dec-15 06:30 UTC. Time now 2017-Dec-15 06:38 UTC.
Position N 44°43' E 037°47'.

Length 26 m; draft 1.8 m.

Type: Pilot. MMSI: 273394060.

Date/timePositionNaut miles runAvg speedWind from/ knotsBaromVisibWave heightAir tempDewpointWater temp
2017-Dec-15 06:30N 44°43' E 037°47'0 0.0
2017-Dec-15 06:00N 44°43' E 037°47'0 0.0
2017-Dec-15 05:30N 44°43' E 037°47'0 0.0
2017-Dec-15 05:00N 44°43' E 037°47'1 2.9
2017-Dec-15 04:30N 44°43' E 037°49'6 9.8
2017-Dec-15 03:54N 44°37' E 037°51'6 4.4
2017-Dec-15 02:29N 44°43' E 037°47'0 0.0
2017-Dec-15 00:59N 44°43' E 037°47'0 0.0
2017-Dec-15 00:29N 44°43' E 037°47'0 0.0
2017-Dec-14 18:29N 44°43' E 037°47'0 0.0
2017-Dec-14 17:59N 44°43' E 037°47'0 0.0
2017-Dec-14 17:29N 44°43' E 037°47'0 0.0
2017-Dec-14 16:59N 44°43' E 037°47'0 0.0
2017-Dec-14 16:29N 44°43' E 037°47'0 0.0
2017-Dec-14 15:59N 44°43' E 037°47'0 0.0
2017-Dec-14 14:59N 44°43' E 037°47'0 0.0
2017-Dec-14 14:29N 44°43' E 037°47'0 0.0
2017-Dec-14 13:59N 44°43' E 037°47'0 0.0
2017-Dec-14 13:29N 44°43' E 037°47'1 3.1
2017-Dec-14 13:00N 44°42' E 037°49'2 4.1
2017-Dec-14 12:30N 44°40' E 037°50'3 6.5
2017-Dec-14 11:59N 44°43' E 037°47'0 0.0
2017-Dec-14 11:29N 44°43' E 037°47'0 0.0
2017-Dec-14 11:00N 44°43' E 037°47'5 9.6
2017-Dec-14 10:30N 44°39' E 037°51'0 0.8
2017-Dec-14 10:00N 44°39' E 037°51'0 0.5
2017-Dec-14 09:30N 44°40' E 037°50'0 0.2
2017-Dec-14 09:00N 44°40' E 037°51'2 3.5
2017-Dec-14 08:28N 44°40' E 037°48'0 0.0
2017-Dec-14 07:55N 44°40' E 037°48'0 0.0
2017-Dec-14 07:28N 44°40' E 037°48'0 0.0
2017-Dec-14 06:58N 44°40' E 037°48'0 0.0
2017-Dec-14 06:28N 44°40' E 037°48'1 1.8
2017-Dec-14 06:00N 44°41' E 037°49'3 5.3
2017-Dec-14 05:28N 44°43' E 037°47'0 0.0
2017-Dec-14 04:58N 44°43' E 037°47'0 0.0
2017-Dec-14 04:29N 44°43' E 037°47'2 5.1
2017-Dec-14 04:01N 44°41' E 037°49'0 0.4
2017-Dec-14 03:30N 44°41' E 037°50'1 2.7
2017-Dec-14 03:00N 44°40' E 037°51'0 0.2
2017-Dec-14 02:26N 44°40' E 037°51'1 1.7
2017-Dec-14 02:00N 44°39' E 037°51'1 1.3
2017-Dec-14 01:29N 44°40' E 037°51'0 0.3
2017-Dec-14 01:00N 44°40' E 037°51'1 1.1
2017-Dec-14 00:30N 44°40' E 037°50'4 7.3
2017-Dec-13 23:58N 44°43' E 037°47'0 0.3
2017-Dec-13 23:29N 44°43' E 037°47'0 0.0
2017-Dec-13 22:59N 44°43' E 037°47'0 0.0
2017-Dec-13 22:29N 44°43' E 037°47'0 0.0
2017-Dec-13 21:59N 44°43' E 037°47'0 0.0
2017-Dec-13 21:29N 44°43' E 037°47'0 0.0
2017-Dec-13 20:59N 44°43' E 037°47'0 0.0
2017-Dec-13 20:29N 44°43' E 037°47'0 0.0
2017-Dec-13 19:59N 44°43' E 037°47'0 0.0
2017-Dec-13 19:29N 44°43' E 037°47'0 0.0
2017-Dec-13 18:56N 44°43' E 037°47'0 0.0
2017-Dec-13 18:29N 44°43' E 037°47'0 0.0
2017-Dec-13 17:59N 44°43' E 037°47'0 0.4
2017-Dec-13 17:30N 44°43' E 037°47'0 0.3
2017-Dec-13 16:59N 44°43' E 037°47'0 0.0
2017-Dec-13 16:29N 44°43' E 037°47'0 0.0
2017-Dec-13 15:59N 44°43' E 037°47'0 0.0
2017-Dec-13 15:29N 44°43' E 037°47'0 0.0
2017-Dec-13 14:59N 44°43' E 037°47'2 5.0
2017-Dec-13 14:30N 44°41' E 037°50'2 4.6
2017-Dec-13 14:00N 44°39' E 037°50'1 1.1
2017-Dec-13 13:30N 44°39' E 037°51'0 0.3
2017-Dec-13 13:00N 44°39' E 037°51'0 0.3
2017-Dec-13 12:29N 44°39' E 037°51'0 0.4
2017-Dec-13 12:00N 44°39' E 037°51'5 8.4
2017-Dec-13 11:27N 44°43' E 037°47'0 0.3
2017-Dec-13 10:58N 44°43' E 037°47'0 0.0
2017-Dec-13 10:28N 44°43' E 037°47'1 2.6
2017-Dec-13 10:00N 44°42' E 037°48'1 2.4
2017-Dec-13 09:29N 44°43' E 037°47'0 0.0
2017-Dec-13 09:00N 44°43' E 037°47'4 8.4
2017-Dec-13 08:30N 44°40' E 037°51'2 3.9
2017-Dec-13 08:00N 44°38' E 037°52'510.2
2017-Dec-13 07:30N 44°42' E 037°49'1 2.1
2017-Dec-13 06:59N 44°43' E 037°47'2 4.1
2017-Dec-13 06:30N 44°42' E 037°49'3 6.3
2017-Dec-13 06:00N 44°39' E 037°51'1 2.8
2017-Dec-13 05:30N 44°40' E 037°50'4 7.0
2017-Dec-13 04:59N 44°43' E 037°47'0 0.0
2017-Dec-13 04:29N 44°43' E 037°47'0 0.0
2017-Dec-13 03:56N 44°43' E 037°47'0 0.0
2017-Dec-13 03:29N 44°43' E 037°47'0 0.0
2017-Dec-13 02:59N 44°43' E 037°47'0 0.0
2017-Dec-13 02:29N 44°43' E 037°47'0 0.2
2017-Dec-13 02:00N 44°43' E 037°47'4 7.2
2017-Dec-13 01:30N 44°40' E 037°50'2 3.8
2017-Dec-13 01:00N 44°42' E 037°49'2 3.4
2017-Dec-13 00:30N 44°43' E 037°48'1 1.0
2017-Dec-13 00:00N 44°43' E 037°47'0 0.0
2017-Dec-12 23:30N 44°43' E 037°47'0 0.0
2017-Dec-12 23:00N 44°43' E 037°47'0 0.0
2017-Dec-12 22:30N 44°43' E 037°47'0 0.0
2017-Dec-12 22:00N 44°43' E 037°47'0 0.0
2017-Dec-12 21:30N 44°43' E 037°47'0 0.0
2017-Dec-12 21:00N 44°43' E 037°47'0 0.0
2017-Dec-12 20:30N 44°43' E 037°47'0 0.0
2017-Dec-12 20:00N 44°43' E 037°47'0 0.0
2017-Dec-12 19:30N 44°43' E 037°47'0 0.0
2017-Dec-12 18:57N 44°43' E 037°47'0 0.0
2017-Dec-12 18:30N 44°43' E 037°47'0 0.0
2017-Dec-12 18:00N 44°43' E 037°47'0 0.0
2017-Dec-12 17:30N 44°43' E 037°47'0 0.0
2017-Dec-12 17:00N 44°43' E 037°47'0 0.0
2017-Dec-12 16:30N 44°43' E 037°47'0 0.0
2017-Dec-12 15:54N 44°43' E 037°47'0 0.0
2017-Dec-12 15:30N 44°43' E 037°47'0 0.0
2017-Dec-12 15:00N 44°43' E 037°47'0 0.0
2017-Dec-12 14:30N 44°43' E 037°47'0 0.0
2017-Dec-12 14:00N 44°43' E 037°47'0 0.0
2017-Dec-12 13:30N 44°43' E 037°47'0 0.0
2017-Dec-12 12:57N 44°43' E 037°47'0 0.0
2017-Dec-12 12:30N 44°43' E 037°47'0 0.0
2017-Dec-12 12:00N 44°43' E 037°47'0 0.0
2017-Dec-12 11:27N 44°43' E 037°47'0 0.0
2017-Dec-12 11:00N 44°43' E 037°47'0 0.0
2017-Dec-12 10:30N 44°43' E 037°47'0 0.0
2017-Dec-12 10:00N 44°43' E 037°47'0 0.0
2017-Dec-12 09:30N 44°43' E 037°47'0 0.0
2017-Dec-12 09:00N 44°43' E 037°47'0 0.0
2017-Dec-12 08:30N 44°43' E 037°47'0 0.0
2017-Dec-12 07:57N 44°43' E 037°47'0 0.0
2017-Dec-12 07:30N 44°43' E 037°47'0 0.0
2017-Dec-12 07:00N 44°43' E 037°47'0 0.0
2017-Dec-12 06:30N 44°43' E 037°47'0 0.0
2017-Dec-12 06:00N 44°43' E 037°47'0 0.0
2017-Dec-12 05:30N 44°43' E 037°47'0 0.0
2017-Dec-12 05:00N 44°43' E 037°47'0 0.0
2017-Dec-12 04:30N 44°43' E 037°47'0 0.0
2017-Dec-12 04:00N 44°43' E 037°47'0 0.0
2017-Dec-12 03:30N 44°43' E 037°47'0 0.0
2017-Dec-12 03:00N 44°43' E 037°47'0 0.0
2017-Dec-12 02:30N 44°43' E 037°47'0 0.0
2017-Dec-12 02:00N 44°43' E 037°47'0 0.0
2017-Dec-12 01:30N 44°43' E 037°47'0 0.0
2017-Dec-12 01:00N 44°43' E 037°47'0 0.0
2017-Dec-12 00:30N 44°43' E 037°47'0 0.0
2017-Dec-11 23:57N 44°43' E 037°47'0 0.0
2017-Dec-11 23:30N 44°43' E 037°47'0 0.0
2017-Dec-11 23:00N 44°43' E 037°47'0 0.0
2017-Dec-11 22:30N 44°43' E 037°47'0 0.0
2017-Dec-11 22:00N 44°43' E 037°47'0 0.0
2017-Dec-11 21:30N 44°43' E 037°47'0 0.0
2017-Dec-11 21:00N 44°43' E 037°47'0 0.0
2017-Dec-11 20:30N 44°43' E 037°47'0 0.0
2017-Dec-11 20:00N 44°43' E 037°47'0 0.0
2017-Dec-11 19:30N 44°43' E 037°47'0 0.0
2017-Dec-11 19:00N 44°43' E 037°47'0 0.0
2017-Dec-11 18:30N 44°43' E 037°47'0 0.0
2017-Dec-11 18:00N 44°43' E 037°47'0 0.0
2017-Dec-11 17:30N 44°43' E 037°47'0 0.0
2017-Dec-11 17:00N 44°43' E 037°47'0 0.0
2017-Dec-11 16:30N 44°43' E 037°47'0 0.0
2017-Dec-11 15:55N 44°43' E 037°47'0 0.0
2017-Dec-11 15:28N 44°43' E 037°47'0 0.0
2017-Dec-11 14:58N 44°43' E 037°47'0 0.0
2017-Dec-11 14:28N 44°43' E 037°47'0 0.0
2017-Dec-11 13:58N 44°43' E 037°47'0 0.0
2017-Dec-11 13:28N 44°43' E 037°47'0 0.0
2017-Dec-11 12:58N 44°43' E 037°47'0 0.0
2017-Dec-11 12:25N 44°43' E 037°47'0 0.0
2017-Dec-11 11:58N 44°43' E 037°47'1 2.9
2017-Dec-11 11:30N 44°42' E 037°49'0 0.9
2017-Dec-11 10:59N 44°42' E 037°49'2 4.0
2017-Dec-11 10:30N 44°40' E 037°50'4 7.0
2017-Dec-11 09:59N 44°43' E 037°47'0 0.3
2017-Dec-11 09:29N 44°43' E 037°47'0 0.0
2017-Dec-11 08:59N 44°43' E 037°47'0 0.0
2017-Dec-11 08:29N 44°43' E 037°47'0 0.0
2017-Dec-11 07:59N 44°43' E 037°47'0 0.0
2017-Dec-11 07:29N 44°43' E 037°47'0 0.0
2017-Dec-11 06:59N 44°43' E 037°47'0 0.0
2017-Dec-11 06:29N 44°43' E 037°47'0 0.1
2017-Dec-11 06:00N 44°43' E 037°47'0 0.1
2017-Dec-11 05:30N 44°43' E 037°47'0 0.0
2017-Dec-11 05:00N 44°43' E 037°47'0 0.0
2017-Dec-11 04:30N 44°43' E 037°47'3 6.5
2017-Dec-11 04:00N 44°41' E 037°50'3 5.8
2017-Dec-11 03:30N 44°43' E 037°48'1 1.6
2017-Dec-11 03:00N 44°43' E 037°47'0 0.0
2017-Dec-11 02:30N 44°43' E 037°47'0 0.0
2017-Dec-11 02:00N 44°43' E 037°47'0 0.0
2017-Dec-11 01:30N 44°43' E 037°47'0 0.0
2017-Dec-11 01:00N 44°43' E 037°47'0 0.0
2017-Dec-11 00:30N 44°43' E 037°47'0 0.0
2017-Dec-11 00:00N 44°43' E 037°47'0 0.0
2017-Dec-10 23:30N 44°43' E 037°47'0 0.0
2017-Dec-10 23:00N 44°43' E 037°47'0 0.0
2017-Dec-10 22:30N 44°43' E 037°47'0 0.0
2017-Dec-10 22:00N 44°43' E 037°47'0 0.0
2017-Dec-10 21:31N 44°43' E 037°47'0 0.0
2017-Dec-10 20:59N 44°43' E 037°47'0 0.0
2017-Dec-10 20:10N 44°43' E 037°47'0 0.0
2017-Dec-10 19:58N 44°43' E 037°47'0 0.0
2017-Dec-10 19:25N 44°43' E 037°47'0 0.0
2017-Dec-10 18:58N 44°43' E 037°47'0 0.0
2017-Dec-10 18:28N 44°43' E 037°47'0 0.0
2017-Dec-10 17:58N 44°43' E 037°47'0 0.0
2017-Dec-10 17:28N 44°43' E 037°47'0 0.0
2017-Dec-10 16:58N 44°43' E 037°47'0 0.0
2017-Dec-10 16:28N 44°43' E 037°47'0 0.0
2017-Dec-10 15:58N 44°43' E 037°47'0 0.0
2017-Dec-10 15:25N 44°43' E 037°47'0 0.0
2017-Dec-10 14:58N 44°43' E 037°47'0 0.0
2017-Dec-10 14:25N 44°43' E 037°47'0 0.0
2017-Dec-10 13:58N 44°43' E 037°47'0 0.0
2017-Dec-10 13:28N 44°43' E 037°47'0 0.0
2017-Dec-10 12:58N 44°43' E 037°47'0 0.0
2017-Dec-10 12:28N 44°43' E 037°47'0 0.0
2017-Dec-10 11:58N 44°43' E 037°47'0 0.0
2017-Dec-10 11:28N 44°43' E 037°47'0 0.0
2017-Dec-10 10:55N 44°43' E 037°47'0 0.0
2017-Dec-10 10:28N 44°43' E 037°47'0 0.0
2017-Dec-10 09:58N 44°43' E 037°47'0 0.0
2017-Dec-10 09:28N 44°43' E 037°47'0 0.0
2017-Dec-10 08:58N 44°43' E 037°47'0 0.0
2017-Dec-10 08:28N 44°43' E 037°47'0 0.0
2017-Dec-10 07:52N 44°43' E 037°47'0 0.0
2017-Dec-10 07:28N 44°43' E 037°47'0 0.0
2017-Dec-10 06:58N 44°43' E 037°47'0 0.0
2017-Dec-10 06:28N 44°43' E 037°47'0 0.0
2017-Dec-10 05:58N 44°43' E 037°47'0 0.0
2017-Dec-10 05:28N 44°43' E 037°47'0 0.0
2017-Dec-10 04:58N 44°43' E 037°47'0 0.0
2017-Dec-10 04:28N 44°43' E 037°47'0 0.0
2017-Dec-10 03:52N 44°43' E 037°47'0 0.0
2017-Dec-10 03:28N 44°43' E 037°47'0 0.0
2017-Dec-10 02:55N 44°43' E 037°47'0 0.0
2017-Dec-10 02:28N 44°43' E 037°47'0 0.0
2017-Dec-10 01:58N 44°43' E 037°47'0 0.0
2017-Dec-10 01:28N 44°43' E 037°47'0 0.0
2017-Dec-10 00:58N 44°43' E 037°47'0 0.0
2017-Dec-10 00:28N 44°43' E 037°47'0 0.0
2017-Dec-09 23:58N 44°43' E 037°47'0 0.0
2017-Dec-09 23:28N 44°43' E 037°47'0 0.0
2017-Dec-09 22:58N 44°43' E 037°47'0 0.0
2017-Dec-09 22:28N 44°43' E 037°47'0 0.0
2017-Dec-09 21:22N 44°43' E 037°47'0 0.0
2017-Dec-09 20:58N 44°43' E 037°47'0 0.0
2017-Dec-09 20:28N 44°43' E 037°47'0 0.0
2017-Dec-09 19:58N 44°43' E 037°47'0 0.0
2017-Dec-09 19:28N 44°43' E 037°47'0 0.0
2017-Dec-09 18:58N 44°43' E 037°47'0 0.0
2017-Dec-09 18:28N 44°43' E 037°47'0 0.0
2017-Dec-09 17:58N 44°43' E 037°47'0 0.0
2017-Dec-09 17:28N 44°43' E 037°47'0 0.0
2017-Dec-09 16:58N 44°43' E 037°47'0 0.0
2017-Dec-09 16:28N 44°43' E 037°47'0 0.0
2017-Dec-09 15:58N 44°43' E 037°47'0 0.0
2017-Dec-09 15:28N 44°43' E 037°47'0 0.0
2017-Dec-09 14:58N 44°43' E 037°47'0 0.0
2017-Dec-09 14:28N 44°43' E 037°47'0 0.0
2017-Dec-09 13:58N 44°43' E 037°47'0 0.0
2017-Dec-09 13:28N 44°43' E 037°47'0 0.0
2017-Dec-09 12:58N 44°43' E 037°47'0 0.0
2017-Dec-09 12:28N 44°43' E 037°47'0 0.0
2017-Dec-09 11:58N 44°43' E 037°47'0 0.0
2017-Dec-09 11:28N 44°43' E 037°47'0 0.0
2017-Dec-09 10:58N 44°43' E 037°47'0 0.0
2017-Dec-09 10:28N 44°43' E 037°47'0 0.0
2017-Dec-09 09:58N 44°43' E 037°47'0 0.0
2017-Dec-09 09:28N 44°43' E 037°47'0 0.0
2017-Dec-09 08:58N 44°43' E 037°47'0 0.0
2017-Dec-09 08:28N 44°43' E 037°47'0 0.0
2017-Dec-09 07:58N 44°43' E 037°47'0 0.0
2017-Dec-09 07:28N 44°43' E 037°47'0 0.0
2017-Dec-09 06:58N 44°43' E 037°47'0 0.0
2017-Dec-09 06:28N 44°43' E 037°47'0 0.0
2017-Dec-09 05:58N 44°43' E 037°47'0 0.0
2017-Dec-09 05:28N 44°43' E 037°47'0 0.0
2017-Dec-09 04:58N 44°43' E 037°47'0 0.0
2017-Dec-09 04:28N 44°43' E 037°47'0 0.0
2017-Dec-09 03:58N 44°43' E 037°47'0 0.0
2017-Dec-09 03:28N 44°43' E 037°47'0 0.0
2017-Dec-09 02:58N 44°43' E 037°47'0 0.0
2017-Dec-09 02:28N 44°43' E 037°47'0 0.0
2017-Dec-09 01:58N 44°43' E 037°47'0 0.0
2017-Dec-09 01:28N 44°43' E 037°47'0 0.0
2017-Dec-09 00:58N 44°43' E 037°47'0 0.0
2017-Dec-09 00:28N 44°43' E 037°47'0 0.0
2017-Dec-08 23:58N 44°43' E 037°47'0 0.0
2017-Dec-08 23:28N 44°43' E 037°47'0 0.0
2017-Dec-08 22:58N 44°43' E 037°47'0 0.0
2017-Dec-08 22:28N 44°43' E 037°47'0 0.0
2017-Dec-08 21:58N 44°43' E 037°47'0 0.0
2017-Dec-08 21:28N 44°43' E 037°47'0 0.0
2017-Dec-08 20:55N 44°43' E 037°47'0 0.0
2017-Dec-08 20:28N 44°43' E 037°47'0 0.0
2017-Dec-08 19:58N 44°43' E 037°47'0 0.0
2017-Dec-08 19:28N 44°43' E 037°47'1 1.2
2017-Dec-08 19:00N 44°43' E 037°48'1 1.0
2017-Dec-08 18:28N 44°43' E 037°47'0 0.0
2017-Dec-08 18:00N 44°43' E 037°47'0 0.0
2017-Dec-08 17:30N 44°43' E 037°47'0 0.0
2017-Dec-08 16:54N 44°43' E 037°47'0 0.0
2017-Dec-08 16:30N 44°43' E 037°47'0 0.0
2017-Dec-08 16:00N 44°43' E 037°47'0 0.0
2017-Dec-08 15:30N 44°43' E 037°47'1 2.1
2017-Dec-08 15:00N 44°43' E 037°49'1 1.2
2017-Dec-08 14:30N 44°42' E 037°49'2 4.1
2017-Dec-08 14:00N 44°40' E 037°50'2 4.8
2017-Dec-08 13:30N 44°42' E 037°48'1 2.6
2017-Dec-08 13:01N 44°43' E 037°47'2 4.2
2017-Dec-08 12:30N 44°42' E 037°49'0 0.8
2017-Dec-08 11:58N 44°42' E 037°49'2 4.6
2017-Dec-08 11:30N 44°40' E 037°51'3 5.7
2017-Dec-08 11:00N 44°42' E 037°49'1 2.6
2017-Dec-08 10:28N 44°43' E 037°47'0 0.0
2017-Dec-08 09:55N 44°43' E 037°47'0 0.0
2017-Dec-08 09:28N 44°43' E 037°47'0 0.0
2017-Dec-08 08:58N 44°43' E 037°47'0 0.0
2017-Dec-08 08:28N 44°43' E 037°47'0 0.0
2017-Dec-08 07:58N 44°43' E 037°47'0 0.0
2017-Dec-08 07:28N 44°43' E 037°47'0 0.0
2017-Dec-08 06:58N 44°43' E 037°47'0 0.0
2017-Dec-08 06:28N 44°43' E 037°47'0 0.0
2017-Dec-08 05:58N 44°43' E 037°47'0 0.0
2017-Dec-08 05:25N 44°43' E 037°47'0 0.0
2017-Dec-08 04:58N 44°43' E 037°47'0 0.0
2017-Dec-08 04:28N 44°43' E 037°47'0 0.0
2017-Dec-08 03:58N 44°43' E 037°47'0 0.0
2017-Dec-08 03:25N 44°43' E 037°47'0 0.0
2017-Dec-08 02:58N 44°43' E 037°47'0 0.0
2017-Dec-08 02:28N 44°43' E 037°47'0 0.0
2017-Dec-08 01:55N 44°43' E 037°47'0 0.0
2017-Dec-08 01:28N 44°43' E 037°47'0 0.0
2017-Dec-08 00:58N 44°43' E 037°47'0 0.0
2017-Dec-08 00:28N 44°43' E 037°47'0 0.0
2017-Dec-07 23:58N 44°43' E 037°47'0 0.0
2017-Dec-07 23:28N 44°43' E 037°47'0 0.0
2017-Dec-07 22:58N 44°43' E 037°47'0 0.0
2017-Dec-07 22:28N 44°43' E 037°47'0 0.0
2017-Dec-07 21:58N 44°43' E 037°47'0 0.0
2017-Dec-07 21:28N 44°43' E 037°47'0 0.0
2017-Dec-07 20:58N 44°43' E 037°47'0 0.0
2017-Dec-07 20:25N 44°43' E 037°47'0 0.0
2017-Dec-07 19:58N 44°43' E 037°47'0 0.0
2017-Dec-07 19:28N 44°43' E 037°47'0 0.0
2017-Dec-07 18:58N 44°43' E 037°47'0 0.2
2017-Dec-07 18:30N 44°43' E 037°47'4 7.8
2017-Dec-07 18:01N 44°40' E 037°50'2 3.7
2017-Dec-07 17:30N 44°38' E 037°51'4 8.3
2017-Dec-07 17:00N 44°42' E 037°49'2 3.5
2017-Dec-07 16:30N 44°43' E 037°47'0 0.0
2017-Dec-07 16:00N 44°43' E 037°47'3 6.5
2017-Dec-07 15:30N 44°41' E 037°51'2 3.5
2017-Dec-07 15:00N 44°40' E 037°53'1 1.6
2017-Dec-07 14:29N 44°40' E 037°54'4 8.6
2017-Dec-07 14:00N 44°42' E 037°49'2 2.9
2017-Dec-07 13:24N 44°43' E 037°47'2 5.0
2017-Dec-07 13:01N 44°42' E 037°49'1 2.4
2017-Dec-07 12:30N 44°41' E 037°50'3 5.9
2017-Dec-07 11:59N 44°43' E 037°47'0 0.0
2017-Dec-07 11:29N 44°43' E 037°47'0 0.0
2017-Dec-07 10:59N 44°43' E 037°47'0 0.0
2017-Dec-07 10:29N 44°43' E 037°47'0 0.0
2017-Dec-07 09:59N 44°43' E 037°47'0 0.0
2017-Dec-07 09:30N 44°43' E 037°47'1 1.5
2017-Dec-07 09:00N 44°44' E 037°47'0 0.0
2017-Dec-07 08:30N 44°44' E 037°47'0 0.0
2017-Dec-07 08:00N 44°44' E 037°47'1 1.2
2017-Dec-07 07:30N 44°43' E 037°47'0 0.3
2017-Dec-07 06:59N 44°43' E 037°47'0 0.0
2017-Dec-07 06:26N 44°43' E 037°47'0 0.0
2017-Dec-07 05:59N 44°43' E 037°47'0 0.0
2017-Dec-07 05:23N 44°43' E 037°47'0 0.0
2017-Dec-07 04:59N 44°43' E 037°47'0 0.0
2017-Dec-07 04:26N 44°43' E 037°47'3 8.1
2017-Dec-07 04:00N 44°41' E 037°51'1 2.4
2017-Dec-07 03:30N 44°40' E 037°51'0 0.6
2017-Dec-07 03:00N 44°40' E 037°50'1 1.1
2017-Dec-07 02:30N 44°40' E 037°51'3 6.3
2017-Dec-07 02:00N 44°42' E 037°49'1 2.3
2017-Dec-07 01:30N 44°43' E 037°47'0 0.0
2017-Dec-07 01:00N 44°43' E 037°47'0 0.0
2017-Dec-07 00:27N 44°43' E 037°47'0 0.0
2017-Dec-07 00:00N 44°43' E 037°47'0 0.0
2017-Dec-06 23:30N 44°43' E 037°47'0 0.0
2017-Dec-06 23:00N 44°43' E 037°47'0 0.0
2017-Dec-06 22:30N 44°43' E 037°47'0 0.0
2017-Dec-06 22:00N 44°43' E 037°47'1 2.4
2017-Dec-06 21:30N 44°43' E 037°49'3 6.9
2017-Dec-06 21:00N 44°40' E 037°51'  

Dump ship's entire track history